sensor_id;sensor_type;location;lat;lon;timestamp;P1;durP1;ratioP1;P2;durP2;ratioP2
80104;SDS011;69865;47.648;19.030;2023-05-13T00:00:23;13.13;;;13.13;;
80104;SDS011;69865;47.648;19.030;2023-05-13T00:00:54;12.53;;;12.53;;
80104;SDS011;69865;47.648;19.030;2023-05-13T00:01:25;13.37;;;13.37;;
80104;SDS011;69865;47.648;19.030;2023-05-13T00:01:56;13.53;;;13.53;;
80104;SDS011;69865;47.648;19.030;2023-05-13T00:02:26;14.10;;;14.10;;
80104;SDS011;69865;47.648;19.030;2023-05-13T00:02:57;13.27;;;13.27;;
80104;SDS011;69865;47.648;19.030;2023-05-13T00:03:28;13.40;;;13.40;;
80104;SDS011;69865;47.648;19.030;2023-05-13T00:03:58;13.03;;;13.03;;
80104;SDS011;69865;47.648;19.030;2023-05-13T00:04:29;12.23;;;12.23;;
80104;SDS011;69865;47.648;19.030;2023-05-13T00:05:00;12.43;;;12.43;;
80104;SDS011;69865;47.648;19.030;2023-05-13T00:05:31;13.07;;;13.07;;
80104;SDS011;69865;47.648;19.030;2023-05-13T00:06:02;13.10;;;13.10;;
80104;SDS011;69865;47.648;19.030;2023-05-13T00:06:32;13.20;;;13.20;;
80104;SDS011;69865;47.648;19.030;2023-05-13T00:07:04;12.50;;;12.50;;
80104;SDS011;69865;47.648;19.030;2023-05-13T00:07:34;12.30;;;12.30;;
80104;SDS011;69865;47.648;19.030;2023-05-13T00:08:05;13.60;;;13.60;;
80104;SDS011;69865;47.648;19.030;2023-05-13T00:08:36;12.67;;;12.67;;
80104;SDS011;69865;47.648;19.030;2023-05-13T00:09:07;12.63;;;12.63;;
80104;SDS011;69865;47.648;19.030;2023-05-13T00:09:38;11.83;;;11.83;;
80104;SDS011;69865;47.648;19.030;2023-05-13T00:10:09;12.40;;;12.40;;
80104;SDS011;69865;47.648;19.030;2023-05-13T00:10:39;13.33;;;13.33;;
80104;SDS011;69865;47.648;19.030;2023-05-13T00:11:10;12.50;;;12.50;;
80104;SDS011;69865;47.648;19.030;2023-05-13T00:11:41;12.40;;;12.40;;
80104;SDS011;69865;47.648;19.030;2023-05-13T00:12:12;12.10;;;12.10;;
80104;SDS011;69865;47.648;19.030;2023-05-13T00:12:42;12.63;;;12.63;;
80104;SDS011;69865;47.648;19.030;2023-05-13T00:13:13;12.53;;;12.53;;
80104;SDS011;69865;47.648;19.030;2023-05-13T00:13:44;12.37;;;12.37;;
80104;SDS011;69865;47.648;19.030;2023-05-13T00:14:16;12.07;;;12.07;;
80104;SDS011;69865;47.648;19.030;2023-05-13T00:14:47;12.17;;;12.17;;
80104;SDS011;69865;47.648;19.030;2023-05-13T00:15:17;12.17;;;12.17;;
80104;SDS011;69865;47.648;19.030;2023-05-13T00:15:48;12.73;;;12.73;;
80104;SDS011;69865;47.648;19.030;2023-05-13T00:16:19;12.57;;;12.57;;
80104;SDS011;69865;47.648;19.030;2023-05-13T00:16:50;13.10;;;13.10;;
80104;SDS011;69865;47.648;19.030;2023-05-13T00:17:21;12.73;;;12.73;;
80104;SDS011;69865;47.648;19.030;2023-05-13T00:17:51;12.70;;;12.70;;
80104;SDS011;69865;47.648;19.030;2023-05-13T00:18:22;13.00;;;13.00;;
80104;SDS011;69865;47.648;19.030;2023-05-13T00:18:53;13.00;;;13.00;;
80104;SDS011;69865;47.648;19.030;2023-05-13T00:19:23;12.47;;;12.47;;
80104;SDS011;69865;47.648;19.030;2023-05-13T00:19:54;11.83;;;11.83;;
80104;SDS011;69865;47.648;19.030;2023-05-13T00:20:25;11.93;;;11.93;;
80104;SDS011;69865;47.648;19.030;2023-05-13T00:20:56;12.50;;;12.50;;
80104;SDS011;69865;47.648;19.030;2023-05-13T00:21:26;12.50;;;12.50;;
80104;SDS011;69865;47.648;19.030;2023-05-13T00:21:57;12.07;;;12.07;;
80104;SDS011;69865;47.648;19.030;2023-05-13T00:22:28;12.37;;;12.37;;
80104;SDS011;69865;47.648;19.030;2023-05-13T00:22:59;13.13;;;13.13;;
80104;SDS011;69865;47.648;19.030;2023-05-13T00:23:29;12.47;;;12.47;;
80104;SDS011;69865;47.648;19.030;2023-05-13T00:24:00;12.17;;;12.17;;
80104;SDS011;69865;47.648;19.030;2023-05-13T00:24:31;12.27;;;12.27;;
80104;SDS011;69865;47.648;19.030;2023-05-13T00:25:02;12.83;;;12.83;;
80104;SDS011;69865;47.648;19.030;2023-05-13T00:25:33;11.97;;;11.97;;
80104;SDS011;69865;47.648;19.030;2023-05-13T00:26:03;12.10;;;12.10;;
80104;SDS011;69865;47.648;19.030;2023-05-13T00:26:34;12.03;;;12.03;;
80104;SDS011;69865;47.648;19.030;2023-05-13T00:27:05;11.93;;;11.93;;
80104;SDS011;69865;47.648;19.030;2023-05-13T00:27:36;12.07;;;12.07;;
80104;SDS011;69865;47.648;19.030;2023-05-13T00:28:06;12.30;;;12.30;;
80104;SDS011;69865;47.648;19.030;2023-05-13T00:28:37;11.97;;;11.97;;
80104;SDS011;69865;47.648;19.030;2023-05-13T00:29:08;12.13;;;12.13;;
80104;SDS011;69865;47.648;19.030;2023-05-13T00:29:40;11.87;;;11.87;;
80104;SDS011;69865;47.648;19.030;2023-05-13T00:30:11;12.40;;;12.40;;
80104;SDS011;69865;47.648;19.030;2023-05-13T00:30:42;12.33;;;12.33;;
80104;SDS011;69865;47.648;19.030;2023-05-13T00:31:13;12.03;;;12.03;;
80104;SDS011;69865;47.648;19.030;2023-05-13T00:31:44;12.47;;;12.47;;
80104;SDS011;69865;47.648;19.030;2023-05-13T00:32:14;12.83;;;12.83;;
80104;SDS011;69865;47.648;19.030;2023-05-13T00:32:45;12.23;;;12.23;;
80104;SDS011;69865;47.648;19.030;2023-05-13T00:33:16;12.53;;;12.53;;
80104;SDS011;69865;47.648;19.030;2023-05-13T00:33:46;12.63;;;12.63;;
80104;SDS011;69865;47.648;19.030;2023-05-13T00:34:17;12.40;;;12.40;;
80104;SDS011;69865;47.648;19.030;2023-05-13T00:34:48;12.60;;;12.60;;
80104;SDS011;69865;47.648;19.030;2023-05-13T00:35:19;12.67;;;12.67;;
80104;SDS011;69865;47.648;19.030;2023-05-13T00:35:49;12.13;;;12.13;;
80104;SDS011;69865;47.648;19.030;2023-05-13T00:36:20;12.03;;;12.03;;
80104;SDS011;69865;47.648;19.030;2023-05-13T00:36:51;11.37;;;11.37;;
80104;SDS011;69865;47.648;19.030;2023-05-13T00:37:21;11.93;;;11.93;;
80104;SDS011;69865;47.648;19.030;2023-05-13T00:37:52;12.30;;;12.30;;
80104;SDS011;69865;47.648;19.030;2023-05-13T00:38:23;12.00;;;12.00;;
80104;SDS011;69865;47.648;19.030;2023-05-13T00:38:54;11.73;;;11.73;;
80104;SDS011;69865;47.648;19.030;2023-05-13T00:39:25;12.80;;;12.80;;
80104;SDS011;69865;47.648;19.030;2023-05-13T00:39:55;12.97;;;12.97;;
80104;SDS011;69865;47.648;19.030;2023-05-13T00:40:26;12.40;;;12.40;;
80104;SDS011;69865;47.648;19.030;2023-05-13T00:40:57;12.37;;;12.37;;
80104;SDS011;69865;47.648;19.030;2023-05-13T00:41:28;12.23;;;12.23;;
80104;SDS011;69865;47.648;19.030;2023-05-13T00:41:59;12.03;;;12.03;;
80104;SDS011;69865;47.648;19.030;2023-05-13T00:42:29;11.83;;;11.83;;
80104;SDS011;69865;47.648;19.030;2023-05-13T00:43:00;11.87;;;11.87;;
80104;SDS011;69865;47.648;19.030;2023-05-13T00:43:31;12.23;;;12.23;;
80104;SDS011;69865;47.648;19.030;2023-05-13T00:44:02;12.77;;;12.77;;
80104;SDS011;69865;47.648;19.030;2023-05-13T00:44:32;12.63;;;12.63;;
80104;SDS011;69865;47.648;19.030;2023-05-13T00:45:05;12.50;;;12.50;;
80104;SDS011;69865;47.648;19.030;2023-05-13T00:45:36;11.80;;;11.80;;
80104;SDS011;69865;47.648;19.030;2023-05-13T00:46:07;11.97;;;11.97;;
80104;SDS011;69865;47.648;19.030;2023-05-13T00:46:38;11.63;;;11.63;;
80104;SDS011;69865;47.648;19.030;2023-05-13T00:47:09;12.03;;;12.03;;
80104;SDS011;69865;47.648;19.030;2023-05-13T00:47:41;11.87;;;11.87;;
80104;SDS011;69865;47.648;19.030;2023-05-13T00:48:12;12.23;;;12.23;;
80104;SDS011;69865;47.648;19.030;2023-05-13T00:48:43;12.10;;;12.10;;
80104;SDS011;69865;47.648;19.030;2023-05-13T00:49:14;12.50;;;12.50;;
80104;SDS011;69865;47.648;19.030;2023-05-13T00:49:45;12.33;;;12.33;;
80104;SDS011;69865;47.648;19.030;2023-05-13T00:50:16;11.83;;;11.83;;
80104;SDS011;69865;47.648;19.030;2023-05-13T00:50:47;11.63;;;11.63;;
80104;SDS011;69865;47.648;19.030;2023-05-13T00:51:19;12.20;;;12.20;;
80104;SDS011;69865;47.648;19.030;2023-05-13T00:51:49;12.07;;;12.07;;
80104;SDS011;69865;47.648;19.030;2023-05-13T00:52:20;11.30;;;11.30;;
80104;SDS011;69865;47.648;19.030;2023-05-13T00:52:51;11.73;;;11.73;;
80104;SDS011;69865;47.648;19.030;2023-05-13T00:53:23;12.57;;;12.57;;
80104;SDS011;69865;47.648;19.030;2023-05-13T00:53:54;11.13;;;11.13;;
80104;SDS011;69865;47.648;19.030;2023-05-13T00:54:28;11.73;;;11.73;;
80104;SDS011;69865;47.648;19.030;2023-05-13T00:54:59;12.27;;;12.27;;
80104;SDS011;69865;47.648;19.030;2023-05-13T00:55:29;12.30;;;12.30;;
80104;SDS011;69865;47.648;19.030;2023-05-13T00:56:00;12.37;;;12.37;;
80104;SDS011;69865;47.648;19.030;2023-05-13T00:56:31;12.00;;;12.00;;
80104;SDS011;69865;47.648;19.030;2023-05-13T00:57:02;11.60;;;11.60;;
80104;SDS011;69865;47.648;19.030;2023-05-13T00:57:33;11.73;;;11.73;;
80104;SDS011;69865;47.648;19.030;2023-05-13T00:58:04;12.60;;;12.60;;
80104;SDS011;69865;47.648;19.030;2023-05-13T00:58:35;12.23;;;12.23;;
80104;SDS011;69865;47.648;19.030;2023-05-13T00:59:06;12.10;;;12.10;;
80104;SDS011;69865;47.648;19.030;2023-05-13T00:59:37;11.60;;;11.60;;
80104;SDS011;69865;47.648;19.030;2023-05-13T01:00:09;12.67;;;12.67;;
80104;SDS011;69865;47.648;19.030;2023-05-13T01:00:49;12.83;;;12.83;;
80104;SDS011;69865;47.648;19.030;2023-05-13T01:01:29;12.73;;;12.73;;
80104;SDS011;69865;47.648;19.030;2023-05-13T01:02:09;12.67;;;12.67;;
80104;SDS011;69865;47.648;19.030;2023-05-13T01:02:49;11.50;;;11.50;;
80104;SDS011;69865;47.648;19.030;2023-05-13T01:03:28;11.93;;;11.93;;
80104;SDS011;69865;47.648;19.030;2023-05-13T01:04:07;11.37;;;11.37;;
80104;SDS011;69865;47.648;19.030;2023-05-13T01:04:52;12.13;;;12.13;;
80104;SDS011;69865;47.648;19.030;2023-05-13T01:05:35;12.00;;;12.00;;
80104;SDS011;69865;47.648;19.030;2023-05-13T01:06:17;12.30;;;12.30;;
80104;SDS011;69865;47.648;19.030;2023-05-13T01:06:56;11.73;;;11.73;;
80104;SDS011;69865;47.648;19.030;2023-05-13T01:07:41;11.23;;;11.23;;
80104;SDS011;69865;47.648;19.030;2023-05-13T01:08:20;11.40;;;11.40;;
80104;SDS011;69865;47.648;19.030;2023-05-13T01:09:00;11.50;;;11.50;;
80104;SDS011;69865;47.648;19.030;2023-05-13T01:09:39;11.90;;;11.90;;
80104;SDS011;69865;47.648;19.030;2023-05-13T01:10:22;12.13;;;12.13;;
80104;SDS011;69865;47.648;19.030;2023-05-13T01:11:03;11.27;;;11.27;;
80104;SDS011;69865;47.648;19.030;2023-05-13T01:11:39;11.97;;;11.97;;
80104;SDS011;69865;47.648;19.030;2023-05-13T01:12:12;11.60;;;11.60;;
80104;SDS011;69865;47.648;19.030;2023-05-13T01:12:50;11.57;;;11.57;;
80104;SDS011;69865;47.648;19.030;2023-05-13T01:13:38;11.93;;;11.93;;
80104;SDS011;69865;47.648;19.030;2023-05-13T01:14:13;11.83;;;11.83;;
80104;SDS011;69865;47.648;19.030;2023-05-13T01:14:53;11.53;;;11.53;;
80104;SDS011;69865;47.648;19.030;2023-05-13T01:15:33;11.40;;;11.40;;
80104;SDS011;69865;47.648;19.030;2023-05-13T01:16:11;11.50;;;11.50;;
80104;SDS011;69865;47.648;19.030;2023-05-13T01:16:48;11.50;;;11.50;;
80104;SDS011;69865;47.648;19.030;2023-05-13T01:17:23;11.53;;;11.53;;
80104;SDS011;69865;47.648;19.030;2023-05-13T01:18:03;11.87;;;11.87;;
80104;SDS011;69865;47.648;19.030;2023-05-13T01:18:39;11.47;;;11.47;;
80104;SDS011;69865;47.648;19.030;2023-05-13T01:19:16;11.13;;;11.13;;
80104;SDS011;69865;47.648;19.030;2023-05-13T01:20:05;11.17;;;11.17;;
80104;SDS011;69865;47.648;19.030;2023-05-13T01:20:39;11.73;;;11.73;;
80104;SDS011;69865;47.648;19.030;2023-05-13T01:21:11;11.80;;;11.80;;
80104;SDS011;69865;47.648;19.030;2023-05-13T01:21:43;11.83;;;11.83;;
80104;SDS011;69865;47.648;19.030;2023-05-13T01:22:21;11.13;;;11.13;;
80104;SDS011;69865;47.648;19.030;2023-05-13T01:22:51;10.93;;;10.93;;
80104;SDS011;69865;47.648;19.030;2023-05-13T01:23:22;11.20;;;11.20;;
80104;SDS011;69865;47.648;19.030;2023-05-13T01:23:53;11.23;;;11.23;;
80104;SDS011;69865;47.648;19.030;2023-05-13T01:24:24;11.87;;;11.87;;
80104;SDS011;69865;47.648;19.030;2023-05-13T01:24:55;11.60;;;11.60;;
80104;SDS011;69865;47.648;19.030;2023-05-13T01:25:26;11.90;;;11.90;;
80104;SDS011;69865;47.648;19.030;2023-05-13T01:25:57;11.50;;;11.50;;
80104;SDS011;69865;47.648;19.030;2023-05-13T01:26:28;11.53;;;11.53;;
80104;SDS011;69865;47.648;19.030;2023-05-13T01:26:58;12.10;;;12.10;;
80104;SDS011;69865;47.648;19.030;2023-05-13T01:27:30;11.80;;;11.80;;
80104;SDS011;69865;47.648;19.030;2023-05-13T01:28:01;11.57;;;11.57;;
80104;SDS011;69865;47.648;19.030;2023-05-13T01:28:32;12.17;;;12.17;;
80104;SDS011;69865;47.648;19.030;2023-05-13T01:29:03;12.00;;;12.00;;
80104;SDS011;69865;47.648;19.030;2023-05-13T01:29:34;11.37;;;11.37;;
80104;SDS011;69865;47.648;19.030;2023-05-13T01:30:05;11.13;;;11.13;;
80104;SDS011;69865;47.648;19.030;2023-05-13T01:30:38;11.73;;;11.73;;
80104;SDS011;69865;47.648;19.030;2023-05-13T01:31:09;12.03;;;12.03;;
80104;SDS011;69865;47.648;19.030;2023-05-13T01:31:41;11.60;;;11.60;;
80104;SDS011;69865;47.648;19.030;2023-05-13T01:32:13;11.90;;;11.90;;
80104;SDS011;69865;47.648;19.030;2023-05-13T01:32:45;11.67;;;11.67;;
80104;SDS011;69865;47.648;19.030;2023-05-13T01:33:17;11.63;;;11.63;;
80104;SDS011;69865;47.648;19.030;2023-05-13T01:33:48;12.50;;;12.50;;
80104;SDS011;69865;47.648;19.030;2023-05-13T01:34:19;11.80;;;11.80;;
80104;SDS011;69865;47.648;19.030;2023-05-13T01:34:52;12.20;;;12.20;;
80104;SDS011;69865;47.648;19.030;2023-05-13T01:35:25;12.07;;;12.07;;
80104;SDS011;69865;47.648;19.030;2023-05-13T01:35:57;12.00;;;12.00;;
80104;SDS011;69865;47.648;19.030;2023-05-13T01:36:28;12.03;;;12.03;;
80104;SDS011;69865;47.648;19.030;2023-05-13T01:37:01;12.27;;;12.27;;
80104;SDS011;69865;47.648;19.030;2023-05-13T01:37:32;11.57;;;11.57;;
80104;SDS011;69865;47.648;19.030;2023-05-13T01:38:02;11.23;;;11.23;;
80104;SDS011;69865;47.648;19.030;2023-05-13T01:38:34;11.30;;;11.30;;
80104;SDS011;69865;47.648;19.030;2023-05-13T01:39:06;11.50;;;11.50;;
80104;SDS011;69865;47.648;19.030;2023-05-13T01:39:38;11.60;;;11.60;;
80104;SDS011;69865;47.648;19.030;2023-05-13T01:40:10;11.17;;;11.17;;
80104;SDS011;69865;47.648;19.030;2023-05-13T01:40:42;10.57;;;10.57;;
80104;SDS011;69865;47.648;19.030;2023-05-13T01:41:12;10.63;;;10.63;;
80104;SDS011;69865;47.648;19.030;2023-05-13T01:41:43;10.90;;;10.90;;
80104;SDS011;69865;47.648;19.030;2023-05-13T01:42:14;11.13;;;11.13;;
80104;SDS011;69865;47.648;19.030;2023-05-13T01:42:45;10.70;;;10.70;;
80104;SDS011;69865;47.648;19.030;2023-05-13T01:43:16;10.77;;;10.77;;
80104;SDS011;69865;47.648;19.030;2023-05-13T01:43:47;10.63;;;10.63;;
80104;SDS011;69865;47.648;19.030;2023-05-13T01:44:17;10.53;;;10.53;;
80104;SDS011;69865;47.648;19.030;2023-05-13T01:44:49;11.00;;;11.00;;
80104;SDS011;69865;47.648;19.030;2023-05-13T01:45:20;10.20;;;10.20;;
80104;SDS011;69865;47.648;19.030;2023-05-13T01:45:51;10.37;;;10.37;;
80104;SDS011;69865;47.648;19.030;2023-05-13T01:46:22;10.37;;;10.37;;
80104;SDS011;69865;47.648;19.030;2023-05-13T01:46:53;9.97;;;9.97;;
80104;SDS011;69865;47.648;19.030;2023-05-13T01:47:24;9.73;;;9.73;;
80104;SDS011;69865;47.648;19.030;2023-05-13T01:47:55;10.60;;;10.60;;
80104;SDS011;69865;47.648;19.030;2023-05-13T01:48:26;10.33;;;10.33;;
80104;SDS011;69865;47.648;19.030;2023-05-13T01:48:57;10.20;;;10.20;;
80104;SDS011;69865;47.648;19.030;2023-05-13T01:49:28;11.00;;;11.00;;
80104;SDS011;69865;47.648;19.030;2023-05-13T01:49:58;10.83;;;10.83;;
80104;SDS011;69865;47.648;19.030;2023-05-13T01:50:29;10.33;;;10.33;;
80104;SDS011;69865;47.648;19.030;2023-05-13T01:51:00;10.33;;;10.33;;
80104;SDS011;69865;47.648;19.030;2023-05-13T01:51:31;10.40;;;10.40;;
80104;SDS011;69865;47.648;19.030;2023-05-13T01:52:03;10.53;;;10.53;;
80104;SDS011;69865;47.648;19.030;2023-05-13T01:52:34;10.23;;;10.23;;
80104;SDS011;69865;47.648;19.030;2023-05-13T01:53:05;9.53;;;9.53;;
80104;SDS011;69865;47.648;19.030;2023-05-13T01:53:35;9.43;;;9.43;;
80104;SDS011;69865;47.648;19.030;2023-05-13T01:54:06;9.67;;;9.67;;
80104;SDS011;69865;47.648;19.030;2023-05-13T01:54:37;10.13;;;10.13;;
80104;SDS011;69865;47.648;19.030;2023-05-13T01:55:08;9.63;;;9.63;;
80104;SDS011;69865;47.648;19.030;2023-05-13T01:55:39;9.60;;;9.60;;
80104;SDS011;69865;47.648;19.030;2023-05-13T01:56:09;9.93;;;9.93;;
80104;SDS011;69865;47.648;19.030;2023-05-13T01:56:40;9.53;;;9.53;;
80104;SDS011;69865;47.648;19.030;2023-05-13T01:57:11;9.70;;;9.70;;
80104;SDS011;69865;47.648;19.030;2023-05-13T01:57:41;10.07;;;10.07;;
80104;SDS011;69865;47.648;19.030;2023-05-13T01:58:12;9.90;;;9.90;;
80104;SDS011;69865;47.648;19.030;2023-05-13T01:58:43;9.40;;;9.40;;
80104;SDS011;69865;47.648;19.030;2023-05-13T01:59:13;8.60;;;8.60;;
80104;SDS011;69865;47.648;19.030;2023-05-13T01:59:44;9.00;;;9.00;;
80104;SDS011;69865;47.648;19.030;2023-05-13T02:00:15;9.30;;;9.30;;
80104;SDS011;69865;47.648;19.030;2023-05-13T02:00:46;9.00;;;9.00;;
80104;SDS011;69865;47.648;19.030;2023-05-13T02:01:17;8.83;;;8.83;;
80104;SDS011;69865;47.648;19.030;2023-05-13T02:01:48;8.87;;;8.87;;
80104;SDS011;69865;47.648;19.030;2023-05-13T02:02:18;9.10;;;9.10;;
80104;SDS011;69865;47.648;19.030;2023-05-13T02:02:49;8.93;;;8.93;;
80104;SDS011;69865;47.648;19.030;2023-05-13T02:03:20;8.70;;;8.70;;
80104;SDS011;69865;47.648;19.030;2023-05-13T02:03:50;9.20;;;9.20;;
80104;SDS011;69865;47.648;19.030;2023-05-13T02:04:21;9.77;;;9.77;;
80104;SDS011;69865;47.648;19.030;2023-05-13T02:04:52;9.70;;;9.70;;
80104;SDS011;69865;47.648;19.030;2023-05-13T02:05:23;8.90;;;8.90;;
80104;SDS011;69865;47.648;19.030;2023-05-13T02:05:53;9.57;;;9.57;;
80104;SDS011;69865;47.648;19.030;2023-05-13T02:06:24;9.17;;;9.17;;
80104;SDS011;69865;47.648;19.030;2023-05-13T02:06:55;9.80;;;9.80;;
80104;SDS011;69865;47.648;19.030;2023-05-13T02:07:27;9.37;;;9.37;;
80104;SDS011;69865;47.648;19.030;2023-05-13T02:07:58;9.87;;;9.87;;
80104;SDS011;69865;47.648;19.030;2023-05-13T02:08:28;10.13;;;10.13;;
80104;SDS011;69865;47.648;19.030;2023-05-13T02:08:59;9.57;;;9.57;;
80104;SDS011;69865;47.648;19.030;2023-05-13T02:09:30;9.87;;;9.87;;
80104;SDS011;69865;47.648;19.030;2023-05-13T02:10:00;9.60;;;9.60;;
80104;SDS011;69865;47.648;19.030;2023-05-13T02:10:31;10.20;;;10.20;;
80104;SDS011;69865;47.648;19.030;2023-05-13T02:11:02;10.27;;;10.27;;
80104;SDS011;69865;47.648;19.030;2023-05-13T02:11:32;10.70;;;10.70;;
80104;SDS011;69865;47.648;19.030;2023-05-13T02:12:03;10.57;;;10.57;;
80104;SDS011;69865;47.648;19.030;2023-05-13T02:12:35;9.97;;;9.97;;
80104;SDS011;69865;47.648;19.030;2023-05-13T02:13:05;10.67;;;10.67;;
80104;SDS011;69865;47.648;19.030;2023-05-13T02:13:36;10.97;;;10.97;;
80104;SDS011;69865;47.648;19.030;2023-05-13T02:14:07;10.33;;;10.33;;
80104;SDS011;69865;47.648;19.030;2023-05-13T02:14:38;10.90;;;10.90;;
80104;SDS011;69865;47.648;19.030;2023-05-13T02:15:09;10.63;;;10.63;;
80104;SDS011;69865;47.648;19.030;2023-05-13T02:15:40;10.93;;;10.93;;
80104;SDS011;69865;47.648;19.030;2023-05-13T02:16:13;10.93;;;10.93;;
80104;SDS011;69865;47.648;19.030;2023-05-13T02:16:45;11.60;;;11.60;;
80104;SDS011;69865;47.648;19.030;2023-05-13T02:17:16;10.63;;;10.63;;
80104;SDS011;69865;47.648;19.030;2023-05-13T02:17:47;10.13;;;10.13;;
80104;SDS011;69865;47.648;19.030;2023-05-13T02:18:17;11.07;;;11.07;;
80104;SDS011;69865;47.648;19.030;2023-05-13T02:18:48;10.43;;;10.43;;
80104;SDS011;69865;47.648;19.030;2023-05-13T02:19:19;10.40;;;10.40;;
80104;SDS011;69865;47.648;19.030;2023-05-13T02:19:49;10.73;;;10.73;;
80104;SDS011;69865;47.648;19.030;2023-05-13T02:20:20;10.00;;;10.00;;
80104;SDS011;69865;47.648;19.030;2023-05-13T02:20:51;10.17;;;10.17;;
80104;SDS011;69865;47.648;19.030;2023-05-13T02:21:22;10.53;;;10.53;;
80104;SDS011;69865;47.648;19.030;2023-05-13T02:21:53;10.93;;;10.93;;
80104;SDS011;69865;47.648;19.030;2023-05-13T02:22:23;11.03;;;11.03;;
80104;SDS011;69865;47.648;19.030;2023-05-13T02:22:55;10.90;;;10.90;;
80104;SDS011;69865;47.648;19.030;2023-05-13T02:23:26;11.57;;;11.57;;
80104;SDS011;69865;47.648;19.030;2023-05-13T02:23:57;11.27;;;11.27;;
80104;SDS011;69865;47.648;19.030;2023-05-13T02:24:29;11.07;;;11.07;;
80104;SDS011;69865;47.648;19.030;2023-05-13T02:25:01;10.67;;;10.67;;
80104;SDS011;69865;47.648;19.030;2023-05-13T02:25:32;10.93;;;10.93;;
80104;SDS011;69865;47.648;19.030;2023-05-13T02:26:03;10.97;;;10.97;;
80104;SDS011;69865;47.648;19.030;2023-05-13T02:26:34;10.53;;;10.53;;
80104;SDS011;69865;47.648;19.030;2023-05-13T02:27:05;10.70;;;10.70;;
80104;SDS011;69865;47.648;19.030;2023-05-13T02:27:36;10.43;;;10.43;;
80104;SDS011;69865;47.648;19.030;2023-05-13T02:28:07;10.43;;;10.43;;
80104;SDS011;69865;47.648;19.030;2023-05-13T02:28:38;10.90;;;10.90;;
80104;SDS011;69865;47.648;19.030;2023-05-13T02:29:08;10.90;;;10.90;;
80104;SDS011;69865;47.648;19.030;2023-05-13T02:29:39;10.57;;;10.57;;
80104;SDS011;69865;47.648;19.030;2023-05-13T02:30:10;10.63;;;10.63;;
80104;SDS011;69865;47.648;19.030;2023-05-13T02:30:41;10.47;;;10.47;;
80104;SDS011;69865;47.648;19.030;2023-05-13T02:31:12;11.67;;;11.67;;
80104;SDS011;69865;47.648;19.030;2023-05-13T02:31:42;11.40;;;11.40;;
80104;SDS011;69865;47.648;19.030;2023-05-13T02:32:13;10.47;;;10.47;;
80104;SDS011;69865;47.648;19.030;2023-05-13T02:32:44;10.00;;;10.00;;
80104;SDS011;69865;47.648;19.030;2023-05-13T02:33:14;10.87;;;10.87;;
80104;SDS011;69865;47.648;19.030;2023-05-13T02:33:45;10.87;;;10.87;;
80104;SDS011;69865;47.648;19.030;2023-05-13T02:34:16;10.83;;;10.83;;
80104;SDS011;69865;47.648;19.030;2023-05-13T02:34:47;11.00;;;11.00;;
80104;SDS011;69865;47.648;19.030;2023-05-13T02:35:17;10.70;;;10.70;;
80104;SDS011;69865;47.648;19.030;2023-05-13T02:35:48;10.30;;;10.30;;
80104;SDS011;69865;47.648;19.030;2023-05-13T02:36:19;9.63;;;9.63;;
80104;SDS011;69865;47.648;19.030;2023-05-13T02:36:50;11.07;;;11.07;;
80104;SDS011;69865;47.648;19.030;2023-05-13T02:37:21;10.40;;;10.40;;
80104;SDS011;69865;47.648;19.030;2023-05-13T02:37:52;10.00;;;10.00;;
80104;SDS011;69865;47.648;19.030;2023-05-13T02:38:24;10.77;;;10.77;;
80104;SDS011;69865;47.648;19.030;2023-05-13T02:38:55;10.07;;;10.07;;
80104;SDS011;69865;47.648;19.030;2023-05-13T02:39:26;9.93;;;9.93;;
80104;SDS011;69865;47.648;19.030;2023-05-13T02:39:57;10.00;;;10.00;;
80104;SDS011;69865;47.648;19.030;2023-05-13T02:40:27;10.00;;;10.00;;
80104;SDS011;69865;47.648;19.030;2023-05-13T02:40:59;10.07;;;10.07;;
80104;SDS011;69865;47.648;19.030;2023-05-13T02:41:30;9.30;;;9.30;;
80104;SDS011;69865;47.648;19.030;2023-05-13T02:42:01;9.53;;;9.53;;
80104;SDS011;69865;47.648;19.030;2023-05-13T02:42:32;9.90;;;9.90;;
80104;SDS011;69865;47.648;19.030;2023-05-13T02:43:02;9.47;;;9.47;;
80104;SDS011;69865;47.648;19.030;2023-05-13T02:43:33;9.80;;;9.80;;
80104;SDS011;69865;47.648;19.030;2023-05-13T02:44:04;9.70;;;9.70;;
80104;SDS011;69865;47.648;19.030;2023-05-13T02:44:34;9.67;;;9.67;;
80104;SDS011;69865;47.648;19.030;2023-05-13T02:45:06;8.63;;;8.63;;
80104;SDS011;69865;47.648;19.030;2023-05-13T02:45:38;9.17;;;9.17;;
80104;SDS011;69865;47.648;19.030;2023-05-13T02:46:09;9.33;;;9.33;;
80104;SDS011;69865;47.648;19.030;2023-05-13T02:46:40;9.10;;;9.10;;
80104;SDS011;69865;47.648;19.030;2023-05-13T02:47:11;9.40;;;9.40;;
80104;SDS011;69865;47.648;19.030;2023-05-13T02:47:41;9.50;;;9.50;;
80104;SDS011;69865;47.648;19.030;2023-05-13T02:48:12;9.37;;;9.37;;
80104;SDS011;69865;47.648;19.030;2023-05-13T02:48:43;8.87;;;8.87;;
80104;SDS011;69865;47.648;19.030;2023-05-13T02:49:14;9.53;;;9.53;;
80104;SDS011;69865;47.648;19.030;2023-05-13T02:49:44;9.60;;;9.60;;
80104;SDS011;69865;47.648;19.030;2023-05-13T02:50:15;9.77;;;9.77;;
80104;SDS011;69865;47.648;19.030;2023-05-13T02:50:46;9.50;;;9.50;;
80104;SDS011;69865;47.648;19.030;2023-05-13T02:51:16;9.57;;;9.57;;
80104;SDS011;69865;47.648;19.030;2023-05-13T02:51:47;9.17;;;9.17;;
80104;SDS011;69865;47.648;19.030;2023-05-13T02:52:18;9.13;;;9.13;;
80104;SDS011;69865;47.648;19.030;2023-05-13T02:52:49;9.27;;;9.27;;
80104;SDS011;69865;47.648;19.030;2023-05-13T02:53:19;9.47;;;9.47;;
80104;SDS011;69865;47.648;19.030;2023-05-13T02:53:51;9.20;;;9.20;;
80104;SDS011;69865;47.648;19.030;2023-05-13T02:54:22;9.80;;;9.80;;
80104;SDS011;69865;47.648;19.030;2023-05-13T02:54:53;9.40;;;9.40;;
80104;SDS011;69865;47.648;19.030;2023-05-13T02:55:24;8.87;;;8.87;;
80104;SDS011;69865;47.648;19.030;2023-05-13T02:55:54;9.07;;;9.07;;
80104;SDS011;69865;47.648;19.030;2023-05-13T02:56:25;9.07;;;9.07;;
80104;SDS011;69865;47.648;19.030;2023-05-13T02:56:56;8.63;;;8.63;;
80104;SDS011;69865;47.648;19.030;2023-05-13T02:57:26;8.80;;;8.80;;
80104;SDS011;69865;47.648;19.030;2023-05-13T02:57:57;9.03;;;9.03;;
80104;SDS011;69865;47.648;19.030;2023-05-13T02:58:28;9.43;;;9.43;;
80104;SDS011;69865;47.648;19.030;2023-05-13T02:58:59;9.20;;;9.20;;
80104;SDS011;69865;47.648;19.030;2023-05-13T02:59:29;9.10;;;9.10;;
80104;SDS011;69865;47.648;19.030;2023-05-13T03:00:00;9.10;;;9.10;;
80104;SDS011;69865;47.648;19.030;2023-05-13T03:00:31;9.23;;;9.23;;
80104;SDS011;69865;47.648;19.030;2023-05-13T03:01:02;8.70;;;8.70;;
80104;SDS011;69865;47.648;19.030;2023-05-13T03:01:32;9.30;;;9.30;;
80104;SDS011;69865;47.648;19.030;2023-05-13T03:02:03;9.70;;;9.70;;
80104;SDS011;69865;47.648;19.030;2023-05-13T03:02:34;9.03;;;9.03;;
80104;SDS011;69865;47.648;19.030;2023-05-13T03:03:05;9.37;;;9.37;;
80104;SDS011;69865;47.648;19.030;2023-05-13T03:03:36;9.20;;;9.20;;
80104;SDS011;69865;47.648;19.030;2023-05-13T03:04:07;9.10;;;9.10;;
80104;SDS011;69865;47.648;19.030;2023-05-13T03:04:37;9.83;;;9.83;;